sensor_id;sensor_type;location;lat;lon;timestamp;P1;durP1;ratioP1;P2;durP2;ratioP2
40515;SDS011;26216;53.724;9.898;2022-10-17T00:02:03;2.58;;;1.60;;
40515;SDS011;26216;53.724;9.898;2022-10-17T00:04:29;2.40;;;1.33;;
40515;SDS011;26216;53.724;9.898;2022-10-17T00:06:54;3.63;;;1.63;;
40515;SDS011;26216;53.724;9.898;2022-10-17T00:09:20;3.63;;;1.50;;
40515;SDS011;26216;53.724;9.898;2022-10-17T00:11:46;2.47;;;1.42;;
40515;SDS011;26216;53.724;9.898;2022-10-17T00:14:12;3.33;;;1.30;;
40515;SDS011;26216;53.724;9.898;2022-10-17T00:16:38;2.47;;;1.30;;
40515;SDS011;26216;53.724;9.898;2022-10-17T00:19:04;2.70;;;1.02;;
40515;SDS011;26216;53.724;9.898;2022-10-17T00:21:31;3.00;;;1.40;;
40515;SDS011;26216;53.724;9.898;2022-10-17T00:23:57;2.78;;;1.10;;
40515;SDS011;26216;53.724;9.898;2022-10-17T00:26:24;2.80;;;1.58;;
40515;SDS011;26216;53.724;9.898;2022-10-17T00:28:51;2.70;;;1.30;;
40515;SDS011;26216;53.724;9.898;2022-10-17T00:31:18;3.20;;;1.30;;
40515;SDS011;26216;53.724;9.898;2022-10-17T00:33:45;3.33;;;1.38;;
40515;SDS011;26216;53.724;9.898;2022-10-17T00:36:12;2.85;;;1.38;;
40515;SDS011;26216;53.724;9.898;2022-10-17T00:38:43;2.67;;;1.40;;
40515;SDS011;26216;53.724;9.898;2022-10-17T00:41:12;2.47;;;1.20;;
40515;SDS011;26216;53.724;9.898;2022-10-17T00:46:58;2.72;;;1.10;;
40515;SDS011;26216;53.724;9.898;2022-10-17T00:49:29;1.83;;;0.82;;
40515;SDS011;26216;53.724;9.898;2022-10-17T00:52:02;2.50;;;1.10;;
40515;SDS011;26216;53.724;9.898;2022-10-17T00:54:39;2.60;;;1.20;;
40515;SDS011;26216;53.724;9.898;2022-10-17T00:57:10;2.42;;;1.20;;
40515;SDS011;26216;53.724;9.898;2022-10-17T00:59:37;2.00;;;1.15;;
40515;SDS011;26216;53.724;9.898;2022-10-17T01:02:09;3.60;;;1.10;;
40515;SDS011;26216;53.724;9.898;2022-10-17T01:04:39;3.13;;;0.98;;
40515;SDS011;26216;53.724;9.898;2022-10-17T01:07:08;2.33;;;1.33;;
40515;SDS011;26216;53.724;9.898;2022-10-17T01:09:35;2.55;;;1.30;;
40515;SDS011;26216;53.724;9.898;2022-10-17T01:12:06;1.92;;;1.23;;
40515;SDS011;26216;53.724;9.898;2022-10-17T01:27:48;2.08;;;1.10;;
40515;SDS011;26216;53.724;9.898;2022-10-17T01:38:17;2.15;;;1.20;;
40515;SDS011;26216;53.724;9.898;2022-10-17T01:40:54;3.95;;;1.20;;
40515;SDS011;26216;53.724;9.898;2022-10-17T01:43:22;2.70;;;1.25;;
40515;SDS011;26216;53.724;9.898;2022-10-17T01:46:05;2.83;;;1.20;;
40515;SDS011;26216;53.724;9.898;2022-10-17T01:48:46;3.55;;;1.45;;
40515;SDS011;26216;53.724;9.898;2022-10-17T01:51:14;2.30;;;1.10;;
40515;SDS011;26216;53.724;9.898;2022-10-17T01:53:45;3.05;;;1.10;;
40515;SDS011;26216;53.724;9.898;2022-10-17T01:56:18;4.63;;;1.20;;
40515;SDS011;26216;53.724;9.898;2022-10-17T01:58:50;1.65;;;0.90;;
40515;SDS011;26216;53.724;9.898;2022-10-17T02:01:21;4.05;;;1.27;;
40515;SDS011;26216;53.724;9.898;2022-10-17T02:03:50;1.88;;;1.00;;
40515;SDS011;26216;53.724;9.898;2022-10-17T02:06:17;2.42;;;1.10;;
40515;SDS011;26216;53.724;9.898;2022-10-17T02:08:44;1.95;;;1.10;;
40515;SDS011;26216;53.724;9.898;2022-10-17T02:16:46;2.88;;;1.20;;
40515;SDS011;26216;53.724;9.898;2022-10-17T02:19:45;2.88;;;1.20;;
40515;SDS011;26216;53.724;9.898;2022-10-17T02:22:24;3.20;;;1.25;;
40515;SDS011;26216;53.724;9.898;2022-10-17T02:28:19;3.15;;;1.35;;
40515;SDS011;26216;53.724;9.898;2022-10-17T02:31:07;4.25;;;1.20;;
40515;SDS011;26216;53.724;9.898;2022-10-17T02:33:50;2.97;;;1.20;;
40515;SDS011;26216;53.724;9.898;2022-10-17T02:36:23;1.98;;;1.20;;
40515;SDS011;26216;53.724;9.898;2022-10-17T02:38:53;2.88;;;1.42;;
40515;SDS011;26216;53.724;9.898;2022-10-17T02:41:21;3.15;;;1.35;;
40515;SDS011;26216;53.724;9.898;2022-10-17T02:43:48;2.90;;;1.20;;
40515;SDS011;26216;53.724;9.898;2022-10-17T02:46:17;2.40;;;1.00;;
40515;SDS011;26216;53.724;9.898;2022-10-17T02:48:47;3.55;;;1.23;;
40515;SDS011;26216;53.724;9.898;2022-10-17T02:51:41;3.17;;;1.30;;
40515;SDS011;26216;53.724;9.898;2022-10-17T02:56:49;9.75;;;1.67;;
40515;SDS011;26216;53.724;9.898;2022-10-17T02:59:23;2.13;;;1.38;;
40515;SDS011;26216;53.724;9.898;2022-10-17T03:01:50;4.80;;;1.63;;
40515;SDS011;26216;53.724;9.898;2022-10-17T03:04:17;2.95;;;1.58;;
40515;SDS011;26216;53.724;9.898;2022-10-17T03:06:44;2.72;;;1.02;;
40515;SDS011;26216;53.724;9.898;2022-10-17T03:09:20;3.22;;;1.10;;
40515;SDS011;26216;53.724;9.898;2022-10-17T03:11:48;1.73;;;1.20;;
40515;SDS011;26216;53.724;9.898;2022-10-17T03:14:15;2.45;;;1.35;;
40515;SDS011;26216;53.724;9.898;2022-10-17T03:16:43;2.28;;;1.25;;
40515;SDS011;26216;53.724;9.898;2022-10-17T03:19:15;5.25;;;1.52;;
40515;SDS011;26216;53.724;9.898;2022-10-17T03:24:09;3.30;;;1.02;;
40515;SDS011;26216;53.724;9.898;2022-10-17T03:26:35;2.35;;;1.20;;
40515;SDS011;26216;53.724;9.898;2022-10-17T03:29:01;2.10;;;1.27;;
40515;SDS011;26216;53.724;9.898;2022-10-17T03:31:27;1.60;;;0.98;;
40515;SDS011;26216;53.724;9.898;2022-10-17T03:33:53;1.65;;;1.00;;
40515;SDS011;26216;53.724;9.898;2022-10-17T03:36:19;1.83;;;0.95;;
40515;SDS011;26216;53.724;9.898;2022-10-17T03:38:45;1.90;;;0.80;;
40515;SDS011;26216;53.724;9.898;2022-10-17T03:41:11;1.73;;;0.93;;
40515;SDS011;26216;53.724;9.898;2022-10-17T03:43:37;1.83;;;0.98;;
40515;SDS011;26216;53.724;9.898;2022-10-17T03:46:04;2.22;;;1.30;;
40515;SDS011;26216;53.724;9.898;2022-10-17T03:48:31;2.25;;;1.02;;
40515;SDS011;26216;53.724;9.898;2022-10-17T03:50:58;1.73;;;1.10;;
40515;SDS011;26216;53.724;9.898;2022-10-17T03:53:26;2.67;;;1.20;;
40515;SDS011;26216;53.724;9.898;2022-10-17T03:55:52;1.90;;;1.17;;
40515;SDS011;26216;53.724;9.898;2022-10-17T03:58:18;1.85;;;1.00;;
40515;SDS011;26216;53.724;9.898;2022-10-17T04:00:43;2.15;;;1.05;;
40515;SDS011;26216;53.724;9.898;2022-10-17T04:03:09;1.63;;;1.10;;
40515;SDS011;26216;53.724;9.898;2022-10-17T04:05:35;1.42;;;0.85;;
40515;SDS011;26216;53.724;9.898;2022-10-17T04:08:01;1.20;;;0.88;;
40515;SDS011;26216;53.724;9.898;2022-10-17T04:10:27;1.83;;;0.80;;
40515;SDS011;26216;53.724;9.898;2022-10-17T04:12:53;1.70;;;0.90;;
40515;SDS011;26216;53.724;9.898;2022-10-17T04:15:19;4.82;;;1.33;;
40515;SDS011;26216;53.724;9.898;2022-10-17T04:17:45;1.50;;;1.02;;
40515;SDS011;26216;53.724;9.898;2022-10-17T04:20:11;2.00;;;1.10;;
40515;SDS011;26216;53.724;9.898;2022-10-17T04:22:37;2.53;;;1.00;;
40515;SDS011;26216;53.724;9.898;2022-10-17T04:25:03;1.92;;;0.98;;
40515;SDS011;26216;53.724;9.898;2022-10-17T04:27:29;1.10;;;0.90;;
40515;SDS011;26216;53.724;9.898;2022-10-17T04:29:55;1.65;;;1.00;;
40515;SDS011;26216;53.724;9.898;2022-10-17T04:32:21;1.05;;;0.90;;
40515;SDS011;26216;53.724;9.898;2022-10-17T04:34:47;1.30;;;0.85;;
40515;SDS011;26216;53.724;9.898;2022-10-17T04:37:14;1.50;;;1.05;;
40515;SDS011;26216;53.724;9.898;2022-10-17T04:39:40;1.52;;;0.90;;
40515;SDS011;26216;53.724;9.898;2022-10-17T04:42:06;1.65;;;0.98;;
40515;SDS011;26216;53.724;9.898;2022-10-17T04:44:31;1.65;;;0.80;;
40515;SDS011;26216;53.724;9.898;2022-10-17T04:47:02;1.55;;;0.95;;
40515;SDS011;26216;53.724;9.898;2022-10-17T04:49:28;1.92;;;0.80;;
40515;SDS011;26216;53.724;9.898;2022-10-17T04:51:53;1.15;;;0.90;;
40515;SDS011;26216;53.724;9.898;2022-10-17T04:54:19;1.83;;;0.90;;
40515;SDS011;26216;53.724;9.898;2022-10-17T04:56:45;1.77;;;1.25;;
40515;SDS011;26216;53.724;9.898;2022-10-17T04:59:11;1.58;;;0.90;;
40515;SDS011;26216;53.724;9.898;2022-10-17T05:01:37;1.30;;;0.70;;
40515;SDS011;26216;53.724;9.898;2022-10-17T05:04:02;3.22;;;0.80;;
40515;SDS011;26216;53.724;9.898;2022-10-17T05:06:28;2.10;;;1.02;;
40515;SDS011;26216;53.724;9.898;2022-10-17T05:08:56;1.08;;;0.90;;
40515;SDS011;26216;53.724;9.898;2022-10-17T05:11:27;1.20;;;0.90;;
40515;SDS011;26216;53.724;9.898;2022-10-17T05:13:54;1.60;;;1.08;;
40515;SDS011;26216;53.724;9.898;2022-10-17T05:16:22;1.13;;;1.00;;
40515;SDS011;26216;53.724;9.898;2022-10-17T05:18:52;1.20;;;0.88;;
40515;SDS011;26216;53.724;9.898;2022-10-17T05:21:20;1.92;;;1.15;;
40515;SDS011;26216;53.724;9.898;2022-10-17T05:23:47;2.45;;;0.98;;
40515;SDS011;26216;53.724;9.898;2022-10-17T05:26:14;1.30;;;0.90;;
40515;SDS011;26216;53.724;9.898;2022-10-17T05:28:40;1.23;;;0.82;;
40515;SDS011;26216;53.724;9.898;2022-10-17T05:31:07;1.67;;;1.00;;
40515;SDS011;26216;53.724;9.898;2022-10-17T05:33:54;1.55;;;0.93;;
40515;SDS011;26216;53.724;9.898;2022-10-17T05:36:20;2.15;;;1.10;;
40515;SDS011;26216;53.724;9.898;2022-10-17T05:38:50;0.88;;;0.80;;
40515;SDS011;26216;53.724;9.898;2022-10-17T05:41:16;2.13;;;1.13;;
40515;SDS011;26216;53.724;9.898;2022-10-17T05:43:43;1.83;;;1.20;;
40515;SDS011;26216;53.724;9.898;2022-10-17T05:46:09;2.75;;;1.05;;
40515;SDS011;26216;53.724;9.898;2022-10-17T05:48:35;1.10;;;1.00;;
40515;SDS011;26216;53.724;9.898;2022-10-17T05:51:03;1.40;;;0.95;;
40515;SDS011;26216;53.724;9.898;2022-10-17T05:53:32;1.85;;;1.00;;
40515;SDS011;26216;53.724;9.898;2022-10-17T05:56:00;1.17;;;0.80;;
40515;SDS011;26216;53.724;9.898;2022-10-17T05:58:28;4.97;;;1.00;;
40515;SDS011;26216;53.724;9.898;2022-10-17T06:00:57;1.48;;;1.00;;
40515;SDS011;26216;53.724;9.898;2022-10-17T06:03:25;2.13;;;1.00;;
40515;SDS011;26216;53.724;9.898;2022-10-17T06:05:51;1.42;;;1.00;;
40515;SDS011;26216;53.724;9.898;2022-10-17T06:08:17;2.15;;;0.90;;
40515;SDS011;26216;53.724;9.898;2022-10-17T06:10:46;2.65;;;1.13;;
40515;SDS011;26216;53.724;9.898;2022-10-17T06:13:13;1.15;;;0.90;;
40515;SDS011;26216;53.724;9.898;2022-10-17T06:15:39;2.58;;;1.40;;
40515;SDS011;26216;53.724;9.898;2022-10-17T06:18:05;1.60;;;1.00;;
40515;SDS011;26216;53.724;9.898;2022-10-17T06:20:31;1.25;;;0.80;;
40515;SDS011;26216;53.724;9.898;2022-10-17T06:22:57;1.95;;;1.15;;
40515;SDS011;26216;53.724;9.898;2022-10-17T06:25:23;1.40;;;1.13;;
40515;SDS011;26216;53.724;9.898;2022-10-17T06:27:49;1.27;;;1.08;;
40515;SDS011;26216;53.724;9.898;2022-10-17T06:30:15;1.70;;;1.25;;
40515;SDS011;26216;53.724;9.898;2022-10-17T06:32:41;2.60;;;1.30;;
40515;SDS011;26216;53.724;9.898;2022-10-17T06:35:07;1.67;;;1.10;;
40515;SDS011;26216;53.724;9.898;2022-10-17T06:37:33;2.05;;;1.40;;
40515;SDS011;26216;53.724;9.898;2022-10-17T06:40:00;2.85;;;1.30;;
40515;SDS011;26216;53.724;9.898;2022-10-17T06:42:26;3.58;;;1.17;;
40515;SDS011;26216;53.724;9.898;2022-10-17T06:44:53;1.73;;;1.27;;
40515;SDS011;26216;53.724;9.898;2022-10-17T06:47:19;1.45;;;1.20;;
40515;SDS011;26216;53.724;9.898;2022-10-17T06:49:45;1.65;;;1.23;;
40515;SDS011;26216;53.724;9.898;2022-10-17T06:52:11;1.30;;;1.20;;
40515;SDS011;26216;53.724;9.898;2022-10-17T06:54:36;1.48;;;1.10;;
40515;SDS011;26216;53.724;9.898;2022-10-17T06:57:09;1.17;;;1.08;;
40515;SDS011;26216;53.724;9.898;2022-10-17T06:59:35;1.30;;;1.13;;
40515;SDS011;26216;53.724;9.898;2022-10-17T07:02:01;1.40;;;1.10;;
40515;SDS011;26216;53.724;9.898;2022-10-17T07:04:27;1.40;;;1.15;;
40515;SDS011;26216;53.724;9.898;2022-10-17T07:06:53;2.15;;;1.45;;
40515;SDS011;26216;53.724;9.898;2022-10-17T07:09:18;2.17;;;1.25;;
40515;SDS011;26216;53.724;9.898;2022-10-17T07:11:45;1.67;;;1.30;;
40515;SDS011;26216;53.724;9.898;2022-10-17T07:14:11;3.33;;;1.55;;
40515;SDS011;26216;53.724;9.898;2022-10-17T07:16:36;1.92;;;1.45;;
40515;SDS011;26216;53.724;9.898;2022-10-17T07:19:02;2.45;;;1.58;;
40515;SDS011;26216;53.724;9.898;2022-10-17T07:21:28;2.55;;;1.70;;
40515;SDS011;26216;53.724;9.898;2022-10-17T07:23:54;3.40;;;2.00;;
40515;SDS011;26216;53.724;9.898;2022-10-17T07:26:20;2.90;;;1.83;;
40515;SDS011;26216;53.724;9.898;2022-10-17T07:28:46;3.22;;;1.90;;
40515;SDS011;26216;53.724;9.898;2022-10-17T07:31:16;2.88;;;2.00;;
40515;SDS011;26216;53.724;9.898;2022-10-17T07:33:43;3.67;;;1.90;;
40515;SDS011;26216;53.724;9.898;2022-10-17T07:36:10;3.53;;;1.95;;
40515;SDS011;26216;53.724;9.898;2022-10-17T07:38:36;4.07;;;2.10;;
40515;SDS011;26216;53.724;9.898;2022-10-17T07:41:03;4.55;;;2.28;;
40515;SDS011;26216;53.724;9.898;2022-10-17T07:43:31;2.78;;;1.73;;
40515;SDS011;26216;53.724;9.898;2022-10-17T07:45:59;2.25;;;1.80;;
40515;SDS011;26216;53.724;9.898;2022-10-17T07:48:25;2.92;;;1.50;;
40515;SDS011;26216;53.724;9.898;2022-10-17T07:50:51;3.40;;;1.92;;
40515;SDS011;26216;53.724;9.898;2022-10-17T07:53:16;3.50;;;1.80;;
40515;SDS011;26216;53.724;9.898;2022-10-17T07:55:43;3.88;;;1.83;;
40515;SDS011;26216;53.724;9.898;2022-10-17T07:58:11;1.90;;;1.25;;
40515;SDS011;26216;53.724;9.898;2022-10-17T08:00:37;2.80;;;2.00;;
40515;SDS011;26216;53.724;9.898;2022-10-17T08:03:03;4.82;;;1.80;;
40515;SDS011;26216;53.724;9.898;2022-10-17T08:05:30;2.40;;;1.63;;
40515;SDS011;26216;53.724;9.898;2022-10-17T08:07:56;3.72;;;1.55;;
40515;SDS011;26216;53.724;9.898;2022-10-17T08:10:22;3.28;;;1.70;;
40515;SDS011;26216;53.724;9.898;2022-10-17T08:12:52;2.42;;;1.65;;
40515;SDS011;26216;53.724;9.898;2022-10-17T08:15:18;2.17;;;1.50;;
40515;SDS011;26216;53.724;9.898;2022-10-17T08:17:44;2.50;;;1.35;;
40515;SDS011;26216;53.724;9.898;2022-10-17T08:20:11;2.58;;;1.67;;
40515;SDS011;26216;53.724;9.898;2022-10-17T08:22:37;2.67;;;1.25;;
40515;SDS011;26216;53.724;9.898;2022-10-17T08:25:03;1.65;;;1.25;;
40515;SDS011;26216;53.724;9.898;2022-10-17T08:27:29;2.22;;;1.52;;
40515;SDS011;26216;53.724;9.898;2022-10-17T08:29:57;2.70;;;1.70;;
40515;SDS011;26216;53.724;9.898;2022-10-17T08:32:24;2.17;;;1.48;;
40515;SDS011;26216;53.724;9.898;2022-10-17T08:34:51;2.08;;;1.40;;
40515;SDS011;26216;53.724;9.898;2022-10-17T08:37:20;2.53;;;1.70;;
40515;SDS011;26216;53.724;9.898;2022-10-17T08:39:47;4.57;;;2.08;;
40515;SDS011;26216;53.724;9.898;2022-10-17T08:47:23;4.05;;;2.13;;
40515;SDS011;26216;53.724;9.898;2022-10-17T08:50:01;5.45;;;2.10;;
40515;SDS011;26216;53.724;9.898;2022-10-17T08:52:37;3.88;;;2.20;;
40515;SDS011;26216;53.724;9.898;2022-10-17T08:55:15;2.90;;;1.80;;
40515;SDS011;26216;53.724;9.898;2022-10-17T08:57:57;3.30;;;2.00;;
40515;SDS011;26216;53.724;9.898;2022-10-17T09:00:23;2.95;;;2.00;;
40515;SDS011;26216;53.724;9.898;2022-10-17T09:09:02;3.33;;;1.50;;
40515;SDS011;26216;53.724;9.898;2022-10-17T09:12:01;4.00;;;1.42;;
40515;SDS011;26216;53.724;9.898;2022-10-17T09:22:33;3.08;;;1.38;;
40515;SDS011;26216;53.724;9.898;2022-10-17T09:25:08;2.58;;;1.58;;
40515;SDS011;26216;53.724;9.898;2022-10-17T09:28:24;3.22;;;1.63;;
40515;SDS011;26216;53.724;9.898;2022-10-17T09:30:45;2.05;;;1.30;;
40515;SDS011;26216;53.724;9.898;2022-10-17T09:33:18;1.73;;;1.30;;
40515;SDS011;26216;53.724;9.898;2022-10-17T09:35:46;1.40;;;1.10;;
40515;SDS011;26216;53.724;9.898;2022-10-17T09:38:15;1.75;;;1.45;;
40515;SDS011;26216;53.724;9.898;2022-10-17T09:40:43;3.05;;;1.40;;
40515;SDS011;26216;53.724;9.898;2022-10-17T09:43:12;3.33;;;1.45;;
40515;SDS011;26216;53.724;9.898;2022-10-17T09:45:45;2.13;;;1.60;;
40515;SDS011;26216;53.724;9.898;2022-10-17T09:49:04;2.28;;;1.50;;
40515;SDS011;26216;53.724;9.898;2022-10-17T09:51:38;5.55;;;1.45;;
40515;SDS011;26216;53.724;9.898;2022-10-17T09:54:10;1.77;;;1.48;;
40515;SDS011;26216;53.724;9.898;2022-10-17T09:56:57;2.92;;;1.80;;
40515;SDS011;26216;53.724;9.898;2022-10-17T09:59:36;4.50;;;2.03;;
40515;SDS011;26216;53.724;9.898;2022-10-17T10:02:25;2.53;;;1.65;;
40515;SDS011;26216;53.724;9.898;2022-10-17T10:07:25;3.05;;;1.92;;
40515;SDS011;26216;53.724;9.898;2022-10-17T10:09:57;2.92;;;1.58;;
40515;SDS011;26216;53.724;9.898;2022-10-17T10:12:29;4.07;;;1.75;;
40515;SDS011;26216;53.724;9.898;2022-10-17T10:14:57;3.15;;;1.85;;
40515;SDS011;26216;53.724;9.898;2022-10-17T10:17:29;2.63;;;1.70;;
40515;SDS011;26216;53.724;9.898;2022-10-17T10:20:28;4.03;;;1.70;;
40515;SDS011;26216;53.724;9.898;2022-10-17T10:23:17;1.92;;;1.50;;
40515;SDS011;26216;53.724;9.898;2022-10-17T10:26:00;2.00;;;1.40;;
40515;SDS011;26216;53.724;9.898;2022-10-17T10:28:28;2.40;;;1.50;;
40515;SDS011;26216;53.724;9.898;2022-10-17T10:31:01;1.80;;;1.40;;
40515;SDS011;26216;53.724;9.898;2022-10-17T10:33:29;2.30;;;1.60;;
40515;SDS011;26216;53.724;9.898;2022-10-17T10:35:59;3.90;;;1.38;;
40515;SDS011;26216;53.724;9.898;2022-10-17T10:38:28;2.72;;;1.50;;
40515;SDS011;26216;53.724;9.898;2022-10-17T10:41:06;2.30;;;1.60;;
40515;SDS011;26216;53.724;9.898;2022-10-17T10:46:15;2.97;;;1.70;;
40515;SDS011;26216;53.724;9.898;2022-10-17T10:48:55;2.30;;;1.50;;
40515;SDS011;26216;53.724;9.898;2022-10-17T10:51:29;2.58;;;1.70;;
40515;SDS011;26216;53.724;9.898;2022-10-17T10:54:15;2.90;;;1.60;;
40515;SDS011;26216;53.724;9.898;2022-10-17T10:57:18;2.78;;;1.70;;
40515;SDS011;26216;53.724;9.898;2022-10-17T11:00:03;2.58;;;1.60;;
40515;SDS011;26216;53.724;9.898;2022-10-17T11:02:42;2.60;;;1.50;;
40515;SDS011;26216;53.724;9.898;2022-10-17T11:05:17;1.70;;;1.40;;
40515;SDS011;26216;53.724;9.898;2022-10-17T11:08:06;2.42;;;1.60;;
40515;SDS011;26216;53.724;9.898;2022-10-17T11:11:02;3.78;;;1.77;;
40515;SDS011;26216;53.724;9.898;2022-10-17T11:14:00;2.88;;;1.95;;
40515;SDS011;26216;53.724;9.898;2022-10-17T11:19:34;2.85;;;2.03;;
40515;SDS011;26216;53.724;9.898;2022-10-17T11:22:14;5.80;;;2.08;;
40515;SDS011;26216;53.724;9.898;2022-10-17T11:24:51;3.03;;;1.88;;
40515;SDS011;26216;53.724;9.898;2022-10-17T11:27:29;3.58;;;1.80;;
40515;SDS011;26216;53.724;9.898;2022-10-17T11:29:55;3.05;;;1.92;;
40515;SDS011;26216;53.724;9.898;2022-10-17T11:32:25;2.60;;;1.60;;
40515;SDS011;26216;53.724;9.898;2022-10-17T11:34:58;3.10;;;1.88;;
40515;SDS011;26216;53.724;9.898;2022-10-17T11:37:31;3.20;;;2.03;;
40515;SDS011;26216;53.724;9.898;2022-10-17T11:40:08;1.95;;;1.70;;
40515;SDS011;26216;53.724;9.898;2022-10-17T11:42:51;2.30;;;1.70;;
40515;SDS011;26216;53.724;9.898;2022-10-17T11:45:25;2.30;;;1.80;;
40515;SDS011;26216;53.724;9.898;2022-10-17T11:48:03;2.05;;;1.50;;
40515;SDS011;26216;53.724;9.898;2022-10-17T11:50:32;2.90;;;1.55;;
40515;SDS011;26216;53.724;9.898;2022-10-17T11:55:40;2.17;;;1.70;;
40515;SDS011;26216;53.724;9.898;2022-10-17T12:12:25;1.98;;;1.50;;
40515;SDS011;26216;53.724;9.898;2022-10-17T12:18:02;2.15;;;1.45;;
40515;SDS011;26216;53.724;9.898;2022-10-17T12:33:24;2.72;;;1.88;;
40515;SDS011;26216;53.724;9.898;2022-10-17T12:49:24;2.17;;;1.92;;
40515;SDS011;26216;53.724;9.898;2022-10-17T12:54:44;3.55;;;1.70;;
40515;SDS011;26216;53.724;9.898;2022-10-17T12:57:20;3.20;;;2.00;;
40515;SDS011;26216;53.724;9.898;2022-10-17T13:00:26;2.38;;;1.90;;
40515;SDS011;26216;53.724;9.898;2022-10-17T13:02:55;2.85;;;2.15;;
40515;SDS011;26216;53.724;9.898;2022-10-17T13:05:28;2.38;;;2.00;;
40515;SDS011;26216;53.724;9.898;2022-10-17T13:07:58;3.33;;;2.35;;
40515;SDS011;26216;53.724;9.898;2022-10-17T13:10:28;3.10;;;2.10;;
40515;SDS011;26216;53.724;9.898;2022-10-17T13:15:39;4.03;;;2.50;;
40515;SDS011;26216;53.724;9.898;2022-10-17T13:18:18;4.25;;;2.95;;
40515;SDS011;26216;53.724;9.898;2022-10-17T13:20:56;4.80;;;3.28;;
40515;SDS011;26216;53.724;9.898;2022-10-17T13:23:30;3.95;;;2.85;;
40515;SDS011;26216;53.724;9.898;2022-10-17T13:26:11;3.72;;;1.95;;
40515;SDS011;26216;53.724;9.898;2022-10-17T13:28:44;3.13;;;2.55;;
40515;SDS011;26216;53.724;9.898;2022-10-17T13:31:31;2.60;;;1.92;;
40515;SDS011;26216;53.724;9.898;2022-10-17T13:34:12;4.63;;;2.35;;
40515;SDS011;26216;53.724;9.898;2022-10-17T13:36:45;3.13;;;2.20;;
40515;SDS011;26216;53.724;9.898;2022-10-17T13:39:13;2.42;;;2.20;;
40515;SDS011;26216;53.724;9.898;2022-10-17T13:41:42;3.67;;;2.60;;
40515;SDS011;26216;53.724;9.898;2022-10-17T13:44:14;3.72;;;2.65;;
40515;SDS011;26216;53.724;9.898;2022-10-17T13:46:47;3.05;;;2.10;;
40515;SDS011;26216;53.724;9.898;2022-10-17T13:49:16;2.97;;;2.17;;
40515;SDS011;26216;53.724;9.898;2022-10-17T13:52:02;3.47;;;2.15;;
40515;SDS011;26216;53.724;9.898;2022-10-17T13:54:36;3.67;;;2.42;;
40515;SDS011;26216;53.724;9.898;2022-10-17T13:57:20;4.57;;;2.55;;
40515;SDS011;26216;53.724;9.898;2022-10-17T13:59:57;3.53;;;2.58;;
40515;SDS011;26216;53.724;9.898;2022-10-17T14:02:27;3.60;;;2.20;;
40515;SDS011;26216;53.724;9.898;2022-10-17T14:04:59;4.03;;;2.70;;
40515;SDS011;26216;53.724;9.898;2022-10-17T14:07:33;2.78;;;2.47;;
40515;SDS011;26216;53.724;9.898;2022-10-17T14:10:01;2.92;;;2.40;;
40515;SDS011;26216;53.724;9.898;2022-10-17T14:12:31;2.88;;;2.03;;
40515;SDS011;26216;53.724;9.898;2022-10-17T14:14:58;2.97;;;2.33;;
40515;SDS011;26216;53.724;9.898;2022-10-17T14:17:28;3.20;;;2.30;;
40515;SDS011;26216;53.724;9.898;2022-10-17T14:19:56;2.97;;;2.28;;
40515;SDS011;26216;53.724;9.898;2022-10-17T14:22:28;3.83;;;2.40;;
40515;SDS011;26216;53.724;9.898;2022-10-17T14:24:58;2.58;;;2.10;;
40515;SDS011;26216;53.724;9.898;2022-10-17T14:27:28;2.90;;;2.20;;
40515;SDS011;26216;53.724;9.898;2022-10-17T14:30:00;2.35;;;2.00;;
40515;SDS011;26216;53.724;9.898;2022-10-17T14:32:30;2.28;;;2.00;;
40515;SDS011;26216;53.724;9.898;2022-10-17T14:37:41;2.67;;;2.10;;
40515;SDS011;26216;53.724;9.898;2022-10-17T14:40:16;3.17;;;2.30;;
40515;SDS011;26216;53.724;9.898;2022-10-17T14:42:45;3.20;;;2.60;;
40515;SDS011;26216;53.724;9.898;2022-10-17T14:45:14;2.85;;;2.30;;
40515;SDS011;26216;53.724;9.898;2022-10-17T14:47:50;2.92;;;1.80;;
40515;SDS011;26216;53.724;9.898;2022-10-17T14:50:22;3.78;;;2.90;;
40515;SDS011;26216;53.724;9.898;2022-10-17T14:55:37;2.97;;;2.67;;
40515;SDS011;26216;53.724;9.898;2022-10-17T14:58:17;2.97;;;2.00;;
40515;SDS011;26216;53.724;9.898;2022-10-17T15:00:49;3.38;;;2.35;;
40515;SDS011;26216;53.724;9.898;2022-10-17T15:03:15;3.70;;;2.65;;
40515;SDS011;26216;53.724;9.898;2022-10-17T15:05:43;4.78;;;2.83;;
40515;SDS011;26216;53.724;9.898;2022-10-17T15:08:13;3.70;;;2.60;;
40515;SDS011;26216;53.724;9.898;2022-10-17T15:10:41;2.97;;;2.27;;
40515;SDS011;26216;53.724;9.898;2022-10-17T15:13:08;2.95;;;2.30;;
40515;SDS011;26216;53.724;9.898;2022-10-17T15:15:35;2.47;;;2.17;;
40515;SDS011;26216;53.724;9.898;2022-10-17T15:18:02;2.90;;;2.47;;
40515;SDS011;26216;53.724;9.898;2022-10-17T15:20:28;3.00;;;2.38;;
40515;SDS011;26216;53.724;9.898;2022-10-17T15:22:56;3.78;;;2.50;;
40515;SDS011;26216;53.724;9.898;2022-10-17T15:25:24;4.20;;;2.60;;
40515;SDS011;26216;53.724;9.898;2022-10-17T15:27:51;3.97;;;2.70;;
40515;SDS011;26216;53.724;9.898;2022-10-17T15:30:22;3.67;;;2.70;;
40515;SDS011;26216;53.724;9.898;2022-10-17T15:32:51;3.85;;;2.30;;
40515;SDS011;26216;53.724;9.898;2022-10-17T15:35:19;3.75;;;2.90;;
40515;SDS011;26216;53.724;9.898;2022-10-17T15:37:47;3.92;;;2.75;;
40515;SDS011;26216;53.724;9.898;2022-10-17T15:40:18;4.45;;;3.10;;
40515;SDS011;26216;53.724;9.898;2022-10-17T15:42:46;4.28;;;2.88;;
40515;SDS011;26216;53.724;9.898;2022-10-17T15:45:14;3.45;;;2.65;;
40515;SDS011;26216;53.724;9.898;2022-10-17T15:47:43;3.42;;;2.50;;
40515;SDS011;26216;53.724;9.898;2022-10-17T15:50:19;3.70;;;3.05;;
40515;SDS011;26216;53.724;9.898;2022-10-17T15:52:46;3.40;;;2.88;;
40515;SDS011;26216;53.724;9.898;2022-10-17T15:55:15;5.03;;;3.33;;
40515;SDS011;26216;53.724;9.898;2022-10-17T15:57:43;3.35;;;2.92;;
40515;SDS011;26216;53.724;9.898;2022-10-17T16:00:21;3.63;;;3.05;;
40515;SDS011;26216;53.724;9.898;2022-10-17T16:02:48;4.18;;;3.03;;
40515;SDS011;26216;53.724;9.898;2022-10-17T16:05:22;4.22;;;2.97;;
40515;SDS011;26216;53.724;9.898;2022-10-17T16:07:53;4.00;;;3.25;;
40515;SDS011;26216;53.724;9.898;2022-10-17T16:10:21;3.67;;;3.15;;
40515;SDS011;26216;53.724;9.898;2022-10-17T16:12:48;5.18;;;3.80;;
40515;SDS011;26216;53.724;9.898;2022-10-17T16:15:24;3.63;;;3.00;;
40515;SDS011;26216;53.724;9.898;2022-10-17T16:17:52;4.97;;;3.00;;
40515;SDS011;26216;53.724;9.898;2022-10-17T16:20:20;4.15;;;3.45;;
40515;SDS011;26216;53.724;9.898;2022-10-17T16:22:47;4.10;;;3.45;;
40515;SDS011;26216;53.724;9.898;2022-10-17T16:25:22;6.25;;;3.53;;
40515;SDS011;26216;53.724;9.898;2022-10-17T16:27:51;3.80;;;3.30;;
40515;SDS011;26216;53.724;9.898;2022-10-17T16:30:19;3.63;;;2.85;;
40515;SDS011;26216;53.724;9.898;2022-10-17T16:32:46;5.10;;;3.55;;
40515;SDS011;26216;53.724;9.898;2022-10-17T16:35:16;3.85;;;3.03;;
40515;SDS011;26216;53.724;9.898;2022-10-17T16:40:10;3.50;;;2.90;;
40515;SDS011;26216;53.724;9.898;2022-10-17T16:42:36;3.40;;;3.10;;
40515;SDS011;26216;53.724;9.898;2022-10-17T16:45:02;3.75;;;3.00;;
40515;SDS011;26216;53.724;9.898;2022-10-17T16:47:28;3.83;;;2.92;;
40515;SDS011;26216;53.724;9.898;2022-10-17T16:49:54;4.20;;;2.83;;
40515;SDS011;26216;53.724;9.898;2022-10-17T16:52:20;3.40;;;3.10;;
40515;SDS011;26216;53.724;9.898;2022-10-17T16:54:46;3.53;;;2.75;;
40515;SDS011;26216;53.724;9.898;2022-10-17T16:57:12;4.75;;;2.50;;
40515;SDS011;26216;53.724;9.898;2022-10-17T16:59:39;4.63;;;2.90;;
40515;SDS011;26216;53.724;9.898;2022-10-17T17:02:05;3.28;;;2.40;;
40515;SDS011;26216;53.724;9.898;2022-10-17T17:04:31;3.13;;;2.25;;
40515;SDS011;26216;53.724;9.898;2022-10-17T17:06:57;3.47;;;2.70;;
40515;SDS011;26216;53.724;9.898;2022-10-17T17:09:23;3.90;;;2.63;;
40515;SDS011;26216;53.724;9.898;2022-10-17T17:11:49;3.42;;;2.47;;
40515;SDS011;26216;53.724;9.898;2022-10-17T17:14:16;3.03;;;2.15;;